Time;durP1;ratioP1;P1;durP2;ratioP2;P2;SDS_P1;SDS_P2;PMS_P1;PMS_P2;Temp;Humidity;BMP_temperature;BMP_pressure;BME280_temperature;BME280_humidity;BME280_pressure;Samples;Min_cycle;Max_cycle;Signal;HPM_P1;HPM_P2
2022/04/17 00:00:21;;;;;;;6.90;5.10;;;5.10;62.60;;;3.69;59.55;97210.75;4884827;28;20376;-60
2022/04/17 00:02:47;;;;;;;6.85;5.40;;;5.10;62.60;;;3.67;59.70;97204.03;4847653;28;20750;-60
2022/04/17 00:05:13;;;;;;;8.90;5.80;;;5.10;62.60;;;3.63;59.95;97208.63;4881251;28;20579;-60
2022/04/17 00:07:39;;;;;;;8.98;5.35;;;5.10;62.80;;;3.61;60.06;97210.50;4888602;28;20363;-60
2022/04/17 00:10:06;;;;;;;8.48;5.47;;;5.10;63.20;;;3.56;60.53;97207.44;4879650;28;20356;-60
2022/04/17 00:12:32;;;;;;;6.97;5.05;;;5.10;63.50;;;3.50;60.60;97215.72;4891154;28;20503;-61
2022/04/17 00:15:00;;;;;;;7.95;5.40;;;5.00;63.60;;;3.41;60.77;97210.41;4865330;28;20215;-60
2022/04/17 00:17:26;;;;;;;9.18;5.93;;;4.80;64.00;;;3.34;60.73;97210.03;4876637;28;20390;-60
2022/04/17 00:19:52;;;;;;;8.80;5.78;;;4.70;64.30;;;3.29;60.95;97206.97;4867531;28;20475;-60
2022/04/17 00:22:18;;;;;;;8.02;5.68;;;4.70;64.50;;;3.24;60.96;97203.88;4891306;28;20362;-60
2022/04/17 00:24:44;;;;;;;7.57;5.63;;;4.70;64.50;;;3.21;61.10;97197.16;4869531;28;20877;-61
2022/04/17 00:27:11;;;;;;;9.10;5.93;;;4.70;64.40;;;3.19;61.06;97187.81;4885715;28;20363;-62
2022/04/17 00:29:37;;;;;;;9.20;5.97;;;4.70;64.40;;;3.16;61.42;97195.81;4888117;28;20713;-61
2022/04/17 00:32:03;;;;;;;6.55;4.95;;;4.70;64.40;;;3.14;61.61;97195.09;4871806;28;20595;-61
2022/04/17 00:34:30;;;;;;;8.30;6.03;;;4.70;64.40;;;3.11;61.88;97190.16;4890384;28;20299;-61
2022/04/17 00:37:00;;;;;;;8.38;5.63;;;4.70;64.60;;;3.07;61.72;97185.19;4896531;28;20272;-62
2022/04/17 00:39:29;;;;;;;7.63;5.63;;;4.70;64.70;;;3.07;62.88;97192.16;4871731;28;20377;-60
2022/04/17 00:41:55;;;;;;;7.80;5.60;;;4.60;64.60;;;3.02;61.77;97187.31;4883175;28;20306;-62
2022/04/17 00:44:21;;;;;;;8.45;5.95;;;4.60;64.70;;;2.98;62.54;97187.66;4893589;28;20455;-60
2022/04/17 00:46:47;;;;;;;10.18;5.65;;;4.60;64.80;;;2.95;62.09;97188.72;4869224;28;20726;-60
2022/04/17 00:49:14;;;;;;;6.90;5.90;;;4.60;64.90;;;2.93;62.64;97192.34;4855742;28;20399;-61
2022/04/17 00:51:42;;;;;;;9.88;5.47;;;4.50;65.20;;;2.89;62.46;97183.97;4870080;28;20479;-60
2022/04/17 00:54:09;;;;;;;9.63;6.03;;;4.50;65.30;;;2.85;63.22;97179.09;4893744;28;20641;-59
2022/04/17 00:56:35;;;;;;;7.47;5.78;;;4.40;65.90;;;2.82;62.82;97179.34;4877868;28;20351;-60
2022/04/17 00:59:09;;;;;;;10.82;5.78;;;4.40;65.70;;;2.80;65.04;97173.44;4883174;28;20347;-60
2022/04/17 01:01:36;;;;;;;8.77;5.97;;;4.40;65.90;;;2.76;63.22;97178.03;4901159;28;20455;-60
2022/04/17 01:04:03;;;;;;;6.88;5.30;;;4.20;66.20;;;2.73;63.34;97173.06;4891200;28;20273;-60
2022/04/17 01:06:30;;;;;;;7.00;5.28;;;4.20;66.20;;;2.69;63.12;97177.63;4900387;28;20326;-60
2022/04/17 01:08:56;;;;;;;7.38;5.47;;;4.20;66.40;;;2.67;63.49;97176.94;4861473;28;20354;-61
2022/04/17 01:11:22;;;;;;;7.05;5.78;;;4.20;66.40;;;2.65;63.95;97175.38;4852276;28;20463;-61
2022/04/17 01:13:48;;;;;;;9.82;5.82;;;4.20;66.40;;;2.62;63.66;97165.22;4890758;28;20566;-60
2022/04/17 01:16:17;;;;;;;8.27;5.97;;;4.20;66.40;;;2.61;63.92;97163.56;4890123;28;20277;-60
2022/04/17 01:19:04;;;;;;;8.15;5.70;;;4.20;66.30;;;2.59;66.40;97165.47;4894326;28;20560;-61
2022/04/17 01:21:31;;;;;;;8.35;5.95;;;4.10;66.40;;;2.54;64.27;97165.81;4869804;28;20455;-60
2022/04/17 01:26:57;;;;;;;8.48;5.65;;;4.10;66.90;;;2.48;64.79;97158.44;4869093;28;20881;-60
2022/04/17 01:29:34;;;;;;;;;;;4.00;67.20;;;2.46;67.83;97161.16;4869911;28;20381;-60
2022/04/17 01:32:02;;;;;;;9.43;6.03;;;4.00;67.30;;;2.41;64.59;97163.28;4913256;28;20314;-60
2022/04/17 01:34:28;;;;;;;10.30;6.53;;;3.90;67.50;;;2.41;64.04;97165.03;4869708;28;20381;-61
2022/04/17 01:36:54;;;;;;;9.52;6.70;;;4.00;67.50;;;2.39;64.08;97162.56;4880878;28;20601;-60
2022/04/17 01:39:21;;;;;;;10.15;6.38;;;4.00;67.20;;;2.35;64.98;97157.72;4869134;28;20680;-61
2022/04/17 01:41:48;;;;;;;8.98;6.30;;;3.90;67.30;;;2.28;64.42;97157.34;4862227;28;20360;-61
2022/04/17 01:44:17;;;;;;;9.45;6.38;;;3.70;67.40;;;2.26;64.52;97150.56;4872817;28;20447;-60
2022/04/17 01:46:46;;;;;;;10.73;6.60;;;3.80;67.60;;;2.25;65.47;97144.56;4900424;28;20484;-60
2022/04/17 01:49:15;;;;;;;8.65;6.50;;;3.80;67.50;;;2.24;64.68;97145.50;4879559;28;20414;-61
2022/04/17 01:51:41;;;;;;;9.52;6.18;;;3.80;67.20;;;2.22;65.17;97137.00;4865644;28;20427;-60
2022/04/17 01:54:12;;;;;;;7.68;5.85;;;3.80;67.20;;;2.19;65.62;97146.78;4868788;28;20348;-60
2022/04/17 01:56:39;;;;;;;11.13;6.40;;;3.80;67.30;;;2.13;65.56;97137.66;4860269;28;20387;-60
2022/04/17 01:59:06;;;;;;;9.25;6.65;;;3.70;67.60;;;2.08;65.84;97140.59;4852888;28;20815;-60
2022/04/17 02:01:36;;;;;;;10.98;7.03;;;3.70;67.70;;;2.04;66.87;97140.94;4885003;28;20481;-60
2022/04/17 02:04:03;;;;;;;19.63;8.82;;;3.60;67.60;;;2.01;65.35;97128.16;4849797;28;20370;-59
2022/04/17 02:06:29;;;;;;;13.73;9.02;;;3.60;67.80;;;1.97;65.10;97131.94;4902493;28;20434;-60
2022/04/17 02:08:55;;;;;;;18.38;10.35;;;3.50;68.30;;;1.94;65.88;97129.56;4853370;28;20593;-61
2022/04/17 02:11:24;;;;;;;17.67;10.65;;;3.50;68.40;;;1.90;65.59;97122.94;4882776;28;20363;-60
2022/04/17 02:13:50;;;;;;;18.67;9.68;;;3.40;68.60;;;1.91;66.33;97119.41;4852782;28;20300;-60
2022/04/17 02:16:19;;;;;;;13.25;8.60;;;3.50;68.50;;;1.90;65.91;97125.53;4854722;28;20309;-60
2022/04/17 02:18:46;;;;;;;14.13;7.93;;;3.50;68.50;;;1.87;66.83;97120.56;4900065;28;20467;-60
2022/04/17 02:21:15;;;;;;;11.48;7.00;;;3.50;68.40;;;1.84;66.47;97121.63;4899410;28;20386;-60
2022/04/17 02:23:42;;;;;;;11.65;7.63;;;3.40;68.30;;;1.80;65.92;97110.59;4886622;28;20754;-60
2022/04/17 02:26:13;;;;;;;13.55;8.10;;;3.40;68.60;;;1.77;67.76;97116.00;4884880;28;20368;-60
2022/04/17 02:28:40;;;;;;;15.13;8.60;;;3.30;68.80;;;1.74;66.70;97111.06;4884414;28;20363;-60
2022/04/17 02:31:06;;;;;;;16.90;8.90;;;3.30;68.70;;;1.69;66.70;97107.97;4902019;28;20934;-60
2022/04/17 02:33:32;;;;;;;19.55;10.25;;;3.20;68.90;;;1.67;66.56;97109.84;4868003;28;20792;-60
2022/04/17 02:35:59;;;;;;;18.80;10.27;;;3.30;69.20;;;1.64;66.43;97104.88;4904456;28;20275;-60
2022/04/17 02:38:25;;;;;;;20.15;10.73;;;3.20;69.10;;;1.62;67.18;97105.94;4871918;28;20324;-60
2022/04/17 02:40:52;;;;;;;16.80;10.02;;;3.20;69.30;;;1.61;67.08;97105.09;4868506;28;20399;-60
2022/04/17 02:43:18;;;;;;;16.73;9.65;;;3.20;69.30;;;1.58;66.77;97100.09;4867279;28;20364;-60
2022/04/17 02:45:44;;;;;;;19.55;10.15;;;3.20;69.40;;;1.54;66.97;97094.31;4884166;28;20337;-61
2022/04/17 02:48:10;;;;;;;15.95;9.88;;;3.20;69.30;;;1.55;67.15;97089.94;4866099;28;20341;-60
2022/04/17 02:50:36;;;;;;;18.52;9.50;;;3.20;69.30;;;1.56;67.05;97091.59;4872390;28;20371;-61
2022/04/17 02:53:02;;;;;;;17.02;9.60;;;3.30;69.20;;;1.57;66.76;97093.25;4899134;28;20399;-60
2022/04/17 02:55:29;;;;;;;16.15;8.77;;;3.30;69.10;;;1.58;67.70;97084.53;4898356;28;20410;-60
2022/04/17 02:57:56;;;;;;;12.35;7.65;;;3.30;68.90;;;1.57;67.23;97088.06;4865795;28;20212;-61
2022/04/17 03:00:23;;;;;;;12.73;7.68;;;3.30;68.60;;;1.57;68.01;97087.25;4915006;28;20342;-61
2022/04/17 03:05:37;;;;;;;9.27;6.38;;;3.20;68.70;;;1.53;66.83;97086.66;4906148;28;20472;-61
2022/04/17 03:08:16;;;;;;;7.68;5.57;;;3.20;68.80;;;1.57;69.24;97082.06;4898176;28;20612;-60
2022/04/17 03:10:48;;;;;;;8.30;6.18;;;3.30;68.80;;;1.56;68.42;97081.22;4859353;28;20219;-61
2022/04/17 03:13:15;;;;;;;8.80;5.57;;;3.20;68.80;;;1.58;66.93;97087.13;4873860;28;20388;-61
2022/04/17 03:15:41;;;;;;;6.95;5.32;;;3.30;68.60;;;1.59;67.95;97088.00;4879863;28;20287;-60
2022/04/17 03:18:08;;;;;;;9.27;5.68;;;3.30;68.60;;;1.58;68.11;97094.91;4884504;28;20447;-60
2022/04/17 03:20:34;;;;;;;8.93;5.50;;;3.30;68.60;;;1.58;67.66;97084.53;4892196;28;20435;-60
2022/04/17 03:23:01;;;;;;;6.97;5.03;;;3.30;68.60;;;1.57;67.73;97077.69;4866206;28;20323;-63
2022/04/17 03:25:27;;;;;;;7.80;5.07;;;3.30;68.70;;;1.58;67.38;97079.34;4871766;28;20267;-60
2022/04/17 03:27:53;;;;;;;7.57;5.32;;;3.30;68.50;;;1.56;67.05;97076.06;4911458;28;20348;-62
2022/04/17 03:30:20;;;;;;;6.88;5.05;;;3.20;68.60;;;1.58;67.09;97078.53;4900067;28;20374;-62
2022/04/17 03:32:47;;;;;;;6.95;4.35;;;3.20;68.70;;;1.59;68.17;97082.81;4899072;28;20300;-62
2022/04/17 03:35:14;;;;;;;6.00;4.20;;;3.30;68.80;;;1.56;67.28;97068.28;4869927;28;20506;-64
2022/04/17 03:37:42;;;;;;;5.65;4.18;;;3.30;68.10;;;1.58;67.04;97068.16;4880460;28;20356;-60
2022/04/17 03:40:10;;;;;;;6.20;4.10;;;3.30;68.20;;;1.57;67.38;97067.34;4867642;28;20415;-63
2022/04/17 03:42:37;;;;;;;6.38;3.58;;;3.30;67.80;;;1.59;67.76;97069.84;4881170;28;20602;-62
2022/04/17 03:45:06;;;;;;;6.53;3.90;;;3.40;67.30;;;1.57;67.60;97067.34;4895424;28;20629;-62
2022/04/17 03:47:33;;;;;;;5.28;3.92;;;3.30;66.60;;;1.57;66.76;97066.50;4895184;28;20705;-60
2022/04/17 03:49:59;;;;;;;6.22;4.00;;;3.20;66.60;;;1.56;67.09;97065.69;4886739;28;20461;-60
2022/04/17 03:52:25;;;;;;;6.90;4.35;;;3.30;66.40;;;1.56;66.65;97070.03;4857956;28;20368;-62
2022/04/17 03:54:51;;;;;;;6.38;3.80;;;3.20;66.40;;;1.56;66.71;97070.03;4900552;28;20410;-62
2022/04/17 03:57:17;;;;;;;6.35;4.10;;;3.20;66.50;;;1.53;66.54;97068.50;4881822;28;20459;-62
2022/04/17 03:59:43;;;;;;;6.70;4.30;;;3.20;66.60;;;1.54;66.36;97072.75;4894829;28;20728;-62
2022/04/17 04:02:09;;;;;;;6.03;4.28;;;3.20;66.50;;;1.54;66.79;97073.56;4885777;28;20474;-60
2022/04/17 04:04:36;;;;;;;6.50;4.10;;;3.20;66.20;;;1.56;66.67;97081.22;4868855;28;20504;-61
2022/04/17 04:07:02;;;;;;;6.93;4.25;;;3.30;66.00;;;1.58;66.86;97079.34;4886601;28;20422;-62
2022/04/17 04:09:28;;;;;;;6.47;4.45;;;3.30;66.50;;;1.60;66.80;97082.69;4892598;28;20144;-59
2022/04/17 04:11:54;;;;;;;7.45;4.40;;;3.40;66.50;;;1.60;66.75;97077.50;4883762;28;20280;-60
2022/04/17 04:14:20;;;;;;;7.55;4.38;;;3.40;66.30;;;1.60;66.50;97084.47;4877820;28;20431;-60
2022/04/17 04:16:46;;;;;;;6.85;4.82;;;3.40;66.30;;;1.60;66.30;97082.69;4877839;28;20893;-60
2022/04/17 04:19:13;;;;;;;5.97;4.32;;;3.30;66.00;;;1.60;66.30;97081.88;4877550;28;20308;-60
2022/04/17 04:21:49;;;;;;;7.70;4.28;;;3.40;66.00;;;1.60;66.72;97068.91;4890308;28;20371;-60
2022/04/17 04:24:16;;;;;;;8.02;4.75;;;3.40;65.90;;;1.57;66.38;97074.28;4872389;28;20220;-61
2022/04/17 04:26:43;;;;;;;7.35;4.45;;;3.30;65.80;;;1.56;66.44;97064.84;4864827;28;20490;-61
2022/04/17 04:29:09;;;;;;;8.93;4.10;;;3.30;66.10;;;1.55;66.28;97071.81;4875495;28;20315;-60
2022/04/17 04:31:35;;;;;;;7.97;4.38;;;3.30;66.10;;;1.55;66.67;97074.41;4938964;28;20561;-60
2022/04/17 04:34:02;;;;;;;6.45;4.43;;;3.30;66.10;;;1.55;66.48;97074.41;4877489;28;20328;-60
2022/04/17 04:36:28;;;;;;;7.15;4.32;;;3.40;66.00;;;1.54;66.12;97077.94;4882957;28;20397;-61
2022/04/17 04:38:54;;;;;;;5.95;4.20;;;3.20;66.30;;;1.53;66.44;97076.28;4913408;28;20327;-62
2022/04/17 04:41:20;;;;;;;6.28;4.45;;;3.20;66.30;;;1.52;66.31;97079.81;4874671;28;20483;-62
2022/04/17 04:43:46;;;;;;;5.03;4.15;;;3.20;66.50;;;1.52;66.82;97077.22;4896286;28;20466;-63
2022/04/17 04:46:12;;;;;;;7.80;4.45;;;3.20;66.40;;;1.53;66.61;97076.28;4879224;28;20370;-62
2022/04/17 04:51:26;;;;;;;6.85;4.07;;;3.30;66.10;;;1.50;66.71;97072.13;4880634;28;20204;-63
2022/04/17 04:53:52;;;;;;;5.53;3.78;;;3.30;66.50;;;1.51;66.28;97072.97;4858688;28;20533;-60
2022/04/17 04:56:19;;;;;;;5.18;3.97;;;3.20;66.20;;;1.51;66.78;97067.78;4862826;28;20335;-61
2022/04/17 04:58:45;;;;;;;7.18;4.03;;;3.30;66.50;;;1.51;66.97;97068.59;4882695;28;20289;-60
2022/04/17 05:01:12;;;;;;;7.47;4.32;;;3.30;66.50;;;1.52;67.37;97059.88;4901950;28;20185;-60
2022/04/17 05:03:38;;;;;;;7.10;4.32;;;3.40;66.30;;;1.55;67.38;97066.63;4882754;28;20317;-60
2022/04/17 05:06:04;;;;;;;6.10;3.97;;;3.40;66.20;;;1.55;67.24;97069.22;4876223;28;20319;-60
2022/04/17 05:08:30;;;;;;;5.88;3.95;;;3.40;66.20;;;1.58;66.92;97063.81;4886735;28;20823;-60
2022/04/17 05:10:57;;;;;;;7.03;3.92;;;3.40;66.50;;;1.63;67.42;97072.09;4867085;28;20289;-61
2022/04/17 05:13:23;;;;;;;6.82;4.15;;;3.50;66.20;;;1.68;67.31;97074.38;4854780;28;20502;-60
2022/04/17 05:15:49;;;;;;;5.82;3.72;;;3.60;66.20;;;1.74;67.92;97069.56;4885813;28;20173;-60
2022/04/17 05:18:15;;;;;;;5.85;4.10;;;3.80;66.50;;;1.82;68.08;97067.25;4880336;28;20059;-61
2022/04/17 05:20:41;;;;;;;10.10;6.95;;;3.90;66.60;;;1.92;67.39;97061.38;4886298;28;20473;-60
2022/04/17 05:23:19;;;;;;;20.38;13.02;;;4.00;66.60;;;2.01;68.36;97055.50;4878386;28;20297;-62
2022/04/17 05:25:47;;;;;;;9.35;6.60;;;4.10;66.00;;;2.12;68.00;97058.16;4901360;28;20310;-61
2022/04/17 05:28:14;;;;;;;7.72;5.10;;;4.30;65.40;;;2.24;67.89;97065.03;4884378;28;20394;-63
2022/04/17 05:30:41;;;;;;;8.45;5.75;;;4.40;65.00;;;2.37;67.16;97059.75;4858370;28;20483;-62
2022/04/17 05:33:07;;;;;;;8.60;4.72;;;4.60;64.10;;;2.48;67.29;97067.56;4881383;28;20411;-62
2022/04/17 05:35:33;;;;;;;9.30;5.47;;;4.70;63.30;;;2.60;66.75;97060.63;4855182;28;20329;-62
2022/04/17 05:37:59;;;;;;;5.43;3.58;;;4.90;63.00;;;2.74;66.81;97060.41;4878066;28;20268;-61
2022/04/17 05:40:25;;;;;;;6.65;4.20;;;5.10;62.60;;;2.87;67.37;97058.50;4883049;28;20316;-62
2022/04/17 05:42:52;;;;;;;9.10;6.40;;;5.20;62.10;;;2.99;66.15;97060.19;4853279;28;20506;-63
2022/04/17 05:45:18;;;;;;;7.40;3.92;;;5.40;61.50;;;3.12;66.10;97048.81;4884257;28;20590;-61
2022/04/17 05:47:44;;;;;;;5.05;3.30;;;5.40;60.90;;;3.25;65.93;97058.16;4878229;28;20399;-61
2022/04/17 05:50:10;;;;;;;5.72;3.28;;;5.60;60.20;;;3.40;65.82;97058.75;4869385;28;20540;-60
2022/04/17 05:52:36;;;;;;;6.13;3.17;;;5.80;59.90;;;3.53;65.49;97054.19;4888583;28;20931;-61
2022/04/17 05:55:02;;;;;;;5.38;3.38;;;6.00;59.00;;;3.65;64.75;97058.44;4886675;28;20766;-62
2022/04/17 05:57:29;;;;;;;5.47;3.40;;;6.10;59.10;;;3.80;64.83;97063.34;4884419;28;20297;-62
2022/04/17 05:59:54;;;;;;;4.53;2.97;;;6.20;58.20;;;3.93;64.86;97057.03;4880303;28;20719;-63
2022/04/17 06:02:21;;;;;;;6.93;3.00;;;6.40;58.20;;;4.09;64.17;97061.00;4893988;28;20287;-65
2022/04/17 06:04:47;;;;;;;5.00;3.00;;;6.60;57.10;;;4.26;63.73;97063.88;4895067;28;20446;-63
2022/04/17 06:07:24;;;;;;;4.32;2.72;;;6.90;55.70;;;4.43;62.75;97062.47;4886984;28;20375;-63
2022/04/17 06:09:50;;;;;;;4.80;2.75;;;7.00;54.50;;;4.56;62.86;97060.53;4869007;28;20445;-66
2022/04/17 06:12:16;;;;;;;6.03;3.13;;;7.10;55.00;;;4.72;63.02;97060.03;4888311;28;20323;-64
2022/04/17 06:14:42;;;;;;;3.83;2.63;;;7.40;54.50;;;4.85;61.88;97058.06;4886210;28;20609;-62
2022/04/17 06:17:10;;;;;;;4.25;2.88;;;7.40;53.20;;;4.96;61.31;97069.34;4883079;28;20579;-60
2022/04/17 06:19:36;;;;;;;6.32;3.33;;;7.50;52.50;;;5.08;61.83;97068.31;4895226;28;20521;-59
2022/04/17 06:22:03;;;;;;;4.88;3.00;;;7.60;52.60;;;5.21;61.27;97066.31;4906630;28;20324;-60
2022/04/17 06:24:29;;;;;;;4.13;2.83;;;7.80;52.70;;;5.38;61.24;97057.84;4862392;28;20632;-59
2022/04/17 06:26:55;;;;;;;5.50;2.95;;;8.00;51.70;;;5.51;60.16;97058.44;4884230;28;20588;-60
2022/04/17 06:29:21;;;;;;;4.53;3.05;;;8.10;51.20;;;5.67;59.36;97063.16;4884266;28;20381;-60
2022/04/17 06:31:57;;;;;;;4.72;2.80;;;8.30;51.10;;;5.84;58.05;97064.25;4884351;28;20557;-64
2022/04/17 06:34:23;;;;;;;5.35;3.15;;;8.50;50.80;;;5.99;58.95;97060.31;4894411;28;20040;-61
2022/04/17 06:36:49;;;;;;;5.53;3.35;;;8.60;51.00;;;6.14;58.43;97055.53;4978415;28;20046;-60
2022/04/17 06:39:15;;;;;;;6.18;2.95;;;8.70;50.90;;;6.24;57.87;97052.91;4971438;28;20069;-63
2022/04/17 06:41:41;;;;;;;5.68;2.88;;;8.80;49.70;;;6.37;57.47;97051.66;4987942;28;20034;-60
2022/04/17 06:44:06;;;;;;;9.90;4.35;;;8.90;49.10;;;6.53;57.69;97051.06;4987691;28;20038;-62
2022/04/17 06:46:32;;;;;;;5.85;3.35;;;9.20;49.80;;;6.70;57.37;97047.75;4985900;28;20578;-62
2022/04/17 06:48:58;;;;;;;4.03;2.85;;;9.40;48.80;;;6.89;56.86;97046.88;4998862;28;20093;-62
2022/04/17 06:51:25;;;;;;;3.92;3.10;;;9.50;48.10;;;7.05;56.64;97054.13;4967812;28;20035;-62
2022/04/17 06:53:52;;;;;;;6.60;4.40;;;9.60;47.50;;;7.22;56.21;97053.34;4969951;28;20065;-62
2022/04/17 06:56:21;;;;;;;4.53;2.95;;;9.80;47.80;;;7.41;56.16;97051.59;4973795;28;20446;-62
2022/04/17 06:58:47;;;;;;;4.45;3.10;;;9.90;47.70;;;7.57;54.67;97051.78;4995016;28;20479;-62
2022/04/17 07:01:16;;;;;;;4.32;3.05;;;10.10;46.00;;;7.72;54.22;97055.56;5003297;28;20120;-63
2022/04/17 07:03:42;;;;;;;4.60;3.65;;;10.20;45.90;;;7.85;53.41;97053.41;5003727;28;20044;-63
2022/04/17 07:06:08;;;;;;;5.53;3.55;;;10.40;45.40;;;8.02;52.98;97053.56;4986214;28;20030;-62
2022/04/17 07:08:33;;;;;;;5.25;2.97;;;10.60;44.70;;;8.17;52.80;97049.47;4988556;28;20069;-62
2022/04/17 07:10:59;;;;;;;7.35;2.70;;;10.80;44.60;;;8.26;52.52;97046.75;5004240;28;20030;-62
2022/04/17 07:13:26;;;;;;;4.25;2.67;;;10.80;44.40;;;8.40;51.88;97045.41;5003454;28;20145;-64
2022/04/17 07:15:52;;;;;;;4.40;2.92;;;11.10;44.30;;;8.54;52.14;97044.84;4994532;28;20255;-62
2022/04/17 07:18:18;;;;;;;4.57;2.97;;;11.40;43.60;;;8.72;50.89;97046.63;4976473;28;20027;-62
2022/04/17 07:20:44;;;;;;;4.40;2.83;;;11.50;42.20;;;8.88;50.85;97057.22;5003945;28;20357;-62
2022/04/17 07:23:10;;;;;;;3.80;2.90;;;11.80;43.10;;;9.03;50.42;97046.97;4987403;28;20104;-62
2022/04/17 07:25:39;;;;;;;3.38;2.30;;;12.10;42.40;;;9.29;50.14;97049.56;5002200;28;20579;-62
2022/04/17 07:28:05;;;;;;;4.78;2.55;;;12.50;40.90;;;9.54;49.03;97051.31;4994358;28;20520;-64
2022/04/17 07:30:33;;;;;;;5.47;2.65;;;12.80;38.90;;;9.75;48.90;97043.81;4970119;28;20037;-63
2022/04/17 07:33:00;;;;;;;6.03;2.67;;;13.10;38.90;;;9.92;47.23;97039.41;5004162;28;20052;-63
2022/04/17 07:35:27;;;;;;;3.38;2.20;;;13.20;37.60;;;10.18;48.16;97033.19;4996312;28;20042;-63
2022/04/17 07:37:54;;;;;;;3.42;2.60;;;13.60;36.80;;;10.49;45.98;97034.22;4975593;28;20127;-63
2022/04/17 07:40:25;;;;;;;2.80;2.13;;;14.00;36.30;;;10.76;45.90;97035.69;4983953;28;20080;-63
2022/04/17 07:42:51;;;;;;;4.83;2.77;;;14.30;35.00;;;10.98;44.60;97032.34;4992880;28;20397;-63
2022/04/17 07:45:17;;;;;;;3.13;2.13;;;14.10;34.60;;;11.15;45.08;97042.84;4965230;28;20635;-63
2022/04/17 07:47:43;;;;;;;3.60;2.17;;;14.40;35.20;;;11.32;45.10;97031.28;4983283;28;20057;-63
2022/04/17 07:50:12;;;;;;;3.63;2.22;;;14.60;34.50;;;11.57;43.27;97032.81;4983540;28;20022;-63
2022/04/17 07:52:39;;;;;;;4.47;2.20;;;14.70;33.90;;;11.86;42.24;97031.34;4990804;28;20108;-64
2022/04/17 07:55:06;;;;;;;4.72;2.30;;;15.10;31.80;;;12.08;41.46;97020.00;4966464;28;20120;-63
2022/04/17 07:57:53;;;;;;;4.35;2.33;;;15.10;32.00;;;12.29;41.30;97021.19;4998581;28;20489;-63
2022/04/17 08:00:24;;;;;;;3.85;2.42;;;15.10;31.90;;;12.53;41.39;97018.34;4986800;28;20034;-63
2022/04/17 08:02:54;;;;;;;3.63;2.60;;;15.50;33.20;;;12.80;40.85;97019.56;4987932;28;20706;-63
2022/04/17 08:05:24;;;;;;;4.40;3.40;;;15.70;32.40;;;13.09;39.17;97008.19;4985135;28;20053;-63
2022/04/17 08:07:51;;;;;;;4.03;2.15;;;16.10;32.10;;;13.34;39.95;97012.22;4973949;28;20394;-63
2022/04/17 08:10:17;;;;;;;4.18;2.55;;;16.20;31.20;;;13.56;39.10;96997.25;4980303;28;20019;-63
2022/04/17 08:12:43;;;;;;;5.18;2.22;;;16.40;30.50;;;13.79;38.68;96999.75;4967769;28;20031;-63
2022/04/17 08:15:09;;;;;;;2.70;1.90;;;16.70;30.60;;;14.00;38.65;96994.47;4985292;28;20533;-63
2022/04/17 08:17:34;;;;;;;5.80;3.65;;;16.80;30.90;;;14.20;38.25;96996.50;5002781;28;20432;-63
2022/04/17 08:20:01;;;;;;;4.47;3.08;;;17.10;30.60;;;14.38;37.32;97002.97;5011131;28;20042;-63
2022/04/17 08:22:26;;;;;;;3.17;2.28;;;17.20;29.90;;;14.48;37.07;96992.09;4976650;28;20338;-63
2022/04/17 08:24:52;;;;;;;3.97;2.22;;;17.20;29.80;;;14.61;37.52;96994.84;5002003;28;20177;-63
2022/04/17 08:27:18;;;;;;;2.90;1.65;;;17.40;29.50;;;14.86;37.06;96989.09;5009887;28;20132;-64
2022/04/17 08:29:43;;;;;;;2.78;1.85;;;17.70;28.30;;;15.05;36.72;96985.78;5000319;28;20073;-64
2022/04/17 08:32:09;;;;;;;4.47;1.92;;;18.10;28.50;;;15.24;35.88;96990.38;5000133;28;20098;-63
2022/04/17 08:34:35;;;;;;;4.03;1.77;;;18.20;27.60;;;15.38;36.07;96982.47;4999671;28;20134;-63
2022/04/17 08:37:01;;;;;;;4.45;2.30;;;18.20;27.80;;;15.42;34.20;96976.59;5021107;28;20041;-63
2022/04/17 08:39:26;;;;;;;4.38;2.00;;;18.10;26.90;;;15.43;35.28;96980.06;4984725;28;20061;-63
2022/04/17 08:41:54;;;;;;;4.53;2.30;;;18.20;27.70;;;15.43;34.27;96977.41;4985339;28;20056;-63
2022/04/17 08:44:21;;;;;;;4.50;1.85;;;18.10;28.00;;;15.49;33.77;96966.00;4986130;28;20132;-63
2022/04/17 08:46:47;;;;;;;2.97;2.15;;;18.20;27.20;;;15.53;33.82;96964.56;4989549;28;20375;-63
2022/04/17 08:49:13;;;;;;;3.20;2.00;;;18.30;27.60;;;15.65;33.97;96971.00;5006419;28;20057;-63
2022/04/17 08:51:39;;;;;;;6.38;2.00;;;18.60;27.50;;;15.77;33.28;96965.91;4989531;28;20603;-63
2022/04/17 08:54:06;;;;;;;4.07;2.25;;;18.60;26.30;;;15.70;33.13;96952.63;4990377;28;20620;-63
2022/04/17 08:56:31;;;;;;;5.18;2.00;;;18.60;26.80;;;15.81;34.06;96960.00;4989998;28;20037;-63
2022/04/17 08:58:58;;;;;;;3.15;1.70;;;18.80;28.10;;;15.95;33.12;96949.41;5008128;28;20566;-63
2022/04/17 09:01:24;;;;;;;2.28;1.55;;;19.00;26.50;;;15.93;33.62;96953.09;4989165;28;20590;-63
2022/04/17 09:03:50;;;;;;;3.05;1.75;;;19.00;26.00;;;16.04;32.96;96948.19;5007838;28;20046;-63
2022/04/17 09:06:20;;;;;;;2.95;1.88;;;19.10;26.30;;;16.23;32.44;96950.06;4989352;28;20108;-63
2022/04/17 09:09:05;;;;;;;5.18;1.88;;;19.50;26.40;;;16.43;31.57;96942.91;4973802;28;20465;-63
2022/04/17 09:11:32;;;;;;;4.57;2.00;;;19.70;26.00;;;16.46;32.60;96941.69;4967858;28;20053;-63
2022/04/17 09:14:03;;;;;;;3.35;2.00;;;19.70;25.30;;;16.56;30.99;96935.97;4990158;28;20034;-63
2022/04/17 09:16:30;;;;;;;3.63;1.88;;;19.70;24.90;;;16.59;31.90;96940.88;5005272;28;20152;-63
2022/04/17 09:18:57;;;;;;;3.70;2.00;;;19.90;25.30;;;16.75;32.91;96935.16;5005996;28;20030;-63
2022/04/17 09:21:33;;;;;;;3.20;1.80;;;20.10;26.10;;;16.80;31.40;96933.50;5004741;28;20113;-63
2022/04/17 09:24:18;;;;;;;2.60;1.80;;;19.90;25.50;;;16.93;30.35;96926.53;4983909;28;20037;-63
2022/04/17 09:26:54;;;;;;;2.92;1.80;;;20.20;24.70;;;17.02;30.95;96920.78;5020494;28;20044;-63
2022/04/17 09:29:23;;;;;;;3.10;1.70;;;20.30;25.20;;;17.08;30.62;96911.97;4995616;28;20042;-63
2022/04/17 09:32:15;;;;;;;2.72;1.80;;;20.40;24.30;;;17.37;30.28;96913.28;5005425;28;20044;-64
2022/04/17 09:34:52;;;;;;;3.33;1.92;;;21.00;24.60;;;17.58;30.53;96896.19;4988231;28;20041;-64
2022/04/17 09:37:19;;;;;;;3.47;1.80;;;21.50;23.90;;;17.71;30.57;96898.81;4969730;28;20058;-63
2022/04/17 09:39:46;;;;;;;2.70;1.80;;;21.60;23.40;;;17.96;31.26;96895.38;4976019;28;20050;-63
2022/04/17 09:42:12;;;;;;;3.70;1.92;;;22.10;23.70;;;18.25;30.48;96884.06;5001782;28;20344;-63
2022/04/17 09:44:46;;;;;;;2.88;1.60;;;22.40;23.90;;;18.36;28.46;96879.91;4984617;28;20039;-63
2022/04/17 09:47:16;;;;;;;3.00;1.98;;;21.80;22.00;;;18.24;29.49;96877.13;4988147;28;20056;-65
2022/04/17 09:49:55;;;;;;;5.03;1.80;;;21.70;22.00;;;18.29;28.55;96879.94;4981069;28;20033;-63
2022/04/17 09:52:23;;;;;;;5.15;1.92;;;21.80;22.80;;;18.36;29.43;96870.06;4988924;28;20040;-64
2022/04/17 09:54:49;;;;;;;3.13;2.00;;;21.90;22.00;;;18.47;28.96;96867.69;4987763;28;20057;-63
2022/04/17 09:57:28;;;;;;;3.17;1.88;;;22.20;22.30;;;18.63;27.77;96867.16;4983250;28;20092;-63
2022/04/17 10:00:08;;;;;;;4.03;2.00;;;22.60;21.30;;;18.79;27.13;96858.59;4989404;28;20100;-63
2022/04/17 10:02:35;;;;;;;3.87;1.87;;;22.90;20.80;;;18.72;28.46;96865.81;4990465;28;20558;-63
2022/04/17 10:05:01;;;;;;;3.72;2.00;;;22.90;20.70;;;18.57;28.05;96855.50;5003264;28;20300;-63
2022/04/17 10:07:26;;;;;;;3.53;1.85;;;22.40;20.40;;;18.59;27.80;96857.97;5000220;28;20449;-64
2022/04/17 10:09:52;;;;;;;4.18;2.28;;;22.70;20.60;;;18.59;27.95;96856.09;4987452;28;20573;-63
2022/04/17 10:12:19;;;;;;;2.85;1.70;;;22.90;21.30;;;18.82;27.54;96847.47;4988189;28;20054;-63
2022/04/17 10:14:48;;;;;;;3.15;1.67;;;23.20;20.40;;;18.88;27.35;96841.25;4971584;28;20139;-64
2022/04/17 10:17:14;;;;;;;2.95;1.67;;;23.30;20.00;;;19.02;27.98;96841.09;4987560;28;20056;-63
2022/04/17 10:19:41;;;;;;;8.10;1.98;;;23.70;20.40;;;19.09;27.56;96841.84;4979630;28;20045;-63
2022/04/17 10:22:07;;;;;;;6.13;1.90;;;24.10;19.90;;;19.33;28.37;96832.91;4972055;28;20033;-63
2022/04/17 10:24:33;;;;;;;3.63;1.90;;;24.80;20.20;;;19.68;27.70;96830.34;4987033;28;20050;-64
2022/04/17 10:26:58;;;;;;;2.25;1.55;;;25.40;19.60;;;20.02;27.76;96828.81;4970939;28;20100;-62
2022/04/17 10:29:43;;;;;;;4.05;1.33;;;25.90;18.60;;;20.19;24.92;96831.63;4993314;28;20758;-65
2022/04/17 10:32:19;;;;;;;3.28;1.90;;;25.60;17.50;;;20.44;26.25;96821.53;4999748;28;20379;-62
2022/04/17 10:35:27;;;;;;;3.78;1.88;;;26.60;18.30;;;20.69;25.75;96821.28;4987034;28;20034;-62
2022/04/17 10:38:24;;;;;;;3.20;1.73;;;26.80;18.40;;;20.86;26.02;96810.66;5002855;28;20125;-62